Khartoum, Sudan
Current Conditions -  °F | °C
As of 8:00 PM on Thursday 23 Oct 2014 (Local Time) from HSSS Reporting Station
Few Clouds Few Clouds  
Wind Chill: 88°   Ceiling: Unl
Heat Index: 90°   Visibility: 6mi
Dew Point: 66°   Wind: 5mph
Humidity: 49%   Direction: 130°SE
Pressure: 29.83"   Gusts: NA
Location:  15.58°N, 32.52°E
Report Text: HSSS 231700Z 13004KT 9999 FEW050 31/19 Q1010 NOSIG
Loading
Personal Weather Stations






























Interactive Weather Map
Tropical Storm Tracking
New forecast layout! Learn more

10-Day Weather Forecast

Advertisements
Track Severe Weather on mobile